Terminal Aerodrome Forecast
Issued by NWS

Home | Current Version | Previous Version | Text Only | Print | Product List | Glossary On
Versions: 1 2 3 4 5 6 7 8 9 10 11 12 13 14 15 16
000
FTUS45 KSLC 011120
TAFEVW
TAF
KEVW 011120Z 0112/0212 17007KT P6SM SCT120
     FM011700 23015G22KT P6SM VCSH SCT070 BKN120
     FM020100 25009KT P6SM SCT070 BKN100
     FM020500 14006KT P6SM FEW070 SCT100=

USA.gov is the U.S. government's official web portal to all federal, state and local government web resources and services.